Terminal Aerodrome Forecast
Issued by NWS

Home | Current Version | Previous Version | Text Only | Print | Product List | Glossary On
Versions: 1 2 3 4 5 6 7 8 9 10 11 12 13 14 15 16 17 18
000
FTUS44 KTSA 190809 AAA
TAFMLC
TAF AMD
KMLC 190809Z 1908/2006 00000KT 3SM BR OVC005
      TEMPO 1908/1912 3/4SM -RA BR VV003
     FM191800 17006G15KT P6SM BKN015
     FM192000 18007G15KT P6SM SCT015 BKN250
     FM200000 17005KT P6SM BKN250=

USA.gov is the U.S. government's official web portal to all federal, state and local government web resources and services.